sensor_id;sensor_type;location;lat;lon;timestamp;temperature;humidity
40077;DHT22;25777;47.824;18.982;2022-08-01T00:00:35;14.90;99.90
40077;DHT22;25777;47.824;18.982;2022-08-01T00:03:01;15.00;99.90
40077;DHT22;25777;47.824;18.982;2022-08-01T00:05:26;14.90;99.90
40077;DHT22;25777;47.824;18.982;2022-08-01T00:07:52;14.90;99.90
40077;DHT22;25777;47.824;18.982;2022-08-01T00:10:18;14.90;99.90
40077;DHT22;25777;47.824;18.982;2022-08-01T00:12:44;14.80;99.90
40077;DHT22;25777;47.824;18.982;2022-08-01T00:15:11;14.80;99.90
40077;DHT22;25777;47.824;18.982;2022-08-01T00:17:37;14.70;99.90
40077;DHT22;25777;47.824;18.982;2022-08-01T00:20:03;14.70;99.90
40077;DHT22;25777;47.824;18.982;2022-08-01T00:22:33;14.70;99.90
40077;DHT22;25777;47.824;18.982;2022-08-01T00:24:59;14.70;99.90
40077;DHT22;25777;47.824;18.982;2022-08-01T00:27:25;14.70;99.90
40077;DHT22;25777;47.824;18.982;2022-08-01T00:29:50;14.60;99.90
40077;DHT22;25777;47.824;18.982;2022-08-01T00:32:16;14.60;99.90
40077;DHT22;25777;47.824;18.982;2022-08-01T00:34:42;14.60;99.90
40077;DHT22;25777;47.824;18.982;2022-08-01T00:37:08;14.60;99.90
40077;DHT22;25777;47.824;18.982;2022-08-01T00:39:33;14.70;99.90
40077;DHT22;25777;47.824;18.982;2022-08-01T00:42:05;14.70;99.90
40077;DHT22;25777;47.824;18.982;2022-08-01T00:44:31;14.70;99.90
40077;DHT22;25777;47.824;18.982;2022-08-01T00:46:56;14.70;99.90
40077;DHT22;25777;47.824;18.982;2022-08-01T00:49:22;14.60;99.90
40077;DHT22;25777;47.824;18.982;2022-08-01T00:51:48;14.70;99.90
40077;DHT22;25777;47.824;18.982;2022-08-01T00:54:14;14.60;99.90
40077;DHT22;25777;47.824;18.982;2022-08-01T00:56:40;14.60;99.90
40077;DHT22;25777;47.824;18.982;2022-08-01T00:59:06;14.60;99.90
40077;DHT22;25777;47.824;18.982;2022-08-01T01:01:32;14.60;99.90
40077;DHT22;25777;47.824;18.982;2022-08-01T01:03:58;14.60;99.90
40077;DHT22;25777;47.824;18.982;2022-08-01T01:11:49;14.60;99.90
40077;DHT22;25777;47.824;18.982;2022-08-01T01:14:21;14.50;99.90
40077;DHT22;25777;47.824;18.982;2022-08-01T01:16:48;14.50;99.90
40077;DHT22;25777;47.824;18.982;2022-08-01T01:19:16;14.50;99.90
40077;DHT22;25777;47.824;18.982;2022-08-01T01:21:54;14.50;99.90
40077;DHT22;25777;47.824;18.982;2022-08-01T01:24:41;14.30;99.90
40077;DHT22;25777;47.824;18.982;2022-08-01T01:27:10;14.40;99.90
40077;DHT22;25777;47.824;18.982;2022-08-01T01:29:50;14.30;99.90
40077;DHT22;25777;47.824;18.982;2022-08-01T01:32:22;14.30;99.90
40077;DHT22;25777;47.824;18.982;2022-08-01T01:34:52;14.20;99.90
40077;DHT22;25777;47.824;18.982;2022-08-01T01:37:20;14.20;99.90
40077;DHT22;25777;47.824;18.982;2022-08-01T01:39:48;14.30;99.90
40077;DHT22;25777;47.824;18.982;2022-08-01T01:42:14;14.30;99.90
40077;DHT22;25777;47.824;18.982;2022-08-01T01:44:41;14.20;99.90
40077;DHT22;25777;47.824;18.982;2022-08-01T01:47:06;14.20;99.90
40077;DHT22;25777;47.824;18.982;2022-08-01T01:49:32;14.20;99.90
40077;DHT22;25777;47.824;18.982;2022-08-01T01:51:59;14.20;99.90
40077;DHT22;25777;47.824;18.982;2022-08-01T01:54:30;14.20;99.90
40077;DHT22;25777;47.824;18.982;2022-08-01T01:56:58;14.20;99.90
40077;DHT22;25777;47.824;18.982;2022-08-01T01:59:25;14.20;99.90
40077;DHT22;25777;47.824;18.982;2022-08-01T02:01:52;14.20;99.90
40077;DHT22;25777;47.824;18.982;2022-08-01T02:04:20;14.20;99.90
40077;DHT22;25777;47.824;18.982;2022-08-01T02:06:46;14.30;99.90
40077;DHT22;25777;47.824;18.982;2022-08-01T02:09:14;14.30;99.90
40077;DHT22;25777;47.824;18.982;2022-08-01T02:11:41;14.30;99.90
40077;DHT22;25777;47.824;18.982;2022-08-01T02:14:07;14.30;99.90
40077;DHT22;25777;47.824;18.982;2022-08-01T02:16:34;14.30;99.90
40077;DHT22;25777;47.824;18.982;2022-08-01T02:19:00;14.30;99.90
40077;DHT22;25777;47.824;18.982;2022-08-01T02:21:28;14.40;99.90
40077;DHT22;25777;47.824;18.982;2022-08-01T02:23:55;14.40;99.90
40077;DHT22;25777;47.824;18.982;2022-08-01T02:26:24;14.40;99.90
40077;DHT22;25777;47.824;18.982;2022-08-01T02:28:51;14.30;99.90
40077;DHT22;25777;47.824;18.982;2022-08-01T02:31:19;14.40;99.90
40077;DHT22;25777;47.824;18.982;2022-08-01T02:33:46;14.40;99.90
40077;DHT22;25777;47.824;18.982;2022-08-01T02:36:13;14.40;99.90
40077;DHT22;25777;47.824;18.982;2022-08-01T02:38:42;14.50;99.90
40077;DHT22;25777;47.824;18.982;2022-08-01T02:41:11;14.50;99.90
40077;DHT22;25777;47.824;18.982;2022-08-01T02:43:38;14.60;99.90
40077;DHT22;25777;47.824;18.982;2022-08-01T02:46:06;14.60;99.90
40077;DHT22;25777;47.824;18.982;2022-08-01T02:48:33;14.50;99.90
40077;DHT22;25777;47.824;18.982;2022-08-01T02:51:01;14.50;99.90
40077;DHT22;25777;47.824;18.982;2022-08-01T02:53:27;14.50;99.90
40077;DHT22;25777;47.824;18.982;2022-08-01T02:55:53;14.50;99.90
40077;DHT22;25777;47.824;18.982;2022-08-01T02:58:19;14.60;99.90
40077;DHT22;25777;47.824;18.982;2022-08-01T03:00:46;14.60;99.90
40077;DHT22;25777;47.824;18.982;2022-08-01T03:03:13;14.60;99.90
40077;DHT22;25777;47.824;18.982;2022-08-01T03:05:39;14.50;99.90
40077;DHT22;25777;47.824;18.982;2022-08-01T03:08:08;14.50;99.90
40077;DHT22;25777;47.824;18.982;2022-08-01T03:10:35;14.60;99.90
40077;DHT22;25777;47.824;18.982;2022-08-01T03:13:01;14.60;99.90
40077;DHT22;25777;47.824;18.982;2022-08-01T03:15:29;14.60;99.90
40077;DHT22;25777;47.824;18.982;2022-08-01T03:17:56;14.70;99.90
40077;DHT22;25777;47.824;18.982;2022-08-01T03:20:22;14.70;99.90
40077;DHT22;25777;47.824;18.982;2022-08-01T03:22:50;14.70;99.90
40077;DHT22;25777;47.824;18.982;2022-08-01T03:25:18;14.80;99.90
40077;DHT22;25777;47.824;18.982;2022-08-01T03:27:45;14.90;99.90
40077;DHT22;25777;47.824;18.982;2022-08-01T03:30:11;14.90;99.90
40077;DHT22;25777;47.824;18.982;2022-08-01T03:32:38;14.90;99.90
40077;DHT22;25777;47.824;18.982;2022-08-01T03:35:04;14.90;99.90
40077;DHT22;25777;47.824;18.982;2022-08-01T03:37:33;14.80;99.90
40077;DHT22;25777;47.824;18.982;2022-08-01T03:42:32;14.60;99.90
40077;DHT22;25777;47.824;18.982;2022-08-01T03:45:02;14.50;99.90
40077;DHT22;25777;47.824;18.982;2022-08-01T03:47:31;14.50;99.90
40077;DHT22;25777;47.824;18.982;2022-08-01T03:49:58;14.50;99.90
40077;DHT22;25777;47.824;18.982;2022-08-01T03:52:25;14.50;99.90
40077;DHT22;25777;47.824;18.982;2022-08-01T03:54:53;14.50;99.90
40077;DHT22;25777;47.824;18.982;2022-08-01T03:57:19;14.40;99.90
40077;DHT22;25777;47.824;18.982;2022-08-01T03:59:45;14.40;99.90
40077;DHT22;25777;47.824;18.982;2022-08-01T04:02:11;14.40;99.90
40077;DHT22;25777;47.824;18.982;2022-08-01T04:04:39;14.40;99.90
40077;DHT22;25777;47.824;18.982;2022-08-01T04:07:04;14.40;99.90
40077;DHT22;25777;47.824;18.982;2022-08-01T04:09:32;14.50;99.90
40077;DHT22;25777;47.824;18.982;2022-08-01T04:11:58;14.40;99.90
40077;DHT22;25777;47.824;18.982;2022-08-01T04:14:24;14.50;99.90
40077;DHT22;25777;47.824;18.982;2022-08-01T04:16:50;14.60;99.90
40077;DHT22;25777;47.824;18.982;2022-08-01T04:19:15;14.70;99.90
40077;DHT22;25777;47.824;18.982;2022-08-01T04:21:41;14.80;99.90
40077;DHT22;25777;47.824;18.982;2022-08-01T04:24:09;14.90;99.90
40077;DHT22;25777;47.824;18.982;2022-08-01T04:26:36;15.00;99.90
40077;DHT22;25777;47.824;18.982;2022-08-01T04:29:02;15.00;99.90
40077;DHT22;25777;47.824;18.982;2022-08-01T04:31:30;15.10;99.90
40077;DHT22;25777;47.824;18.982;2022-08-01T04:33:56;15.10;99.90
40077;DHT22;25777;47.824;18.982;2022-08-01T04:36:23;15.10;99.90
40077;DHT22;25777;47.824;18.982;2022-08-01T04:38:50;15.10;99.90
40077;DHT22;25777;47.824;18.982;2022-08-01T04:41:17;15.10;99.90
40077;DHT22;25777;47.824;18.982;2022-08-01T04:43:44;15.10;99.90
40077;DHT22;25777;47.824;18.982;2022-08-01T04:46:10;15.20;99.90
40077;DHT22;25777;47.824;18.982;2022-08-01T04:48:37;15.30;99.90
40077;DHT22;25777;47.824;18.982;2022-08-01T04:51:04;15.40;99.90
40077;DHT22;25777;47.824;18.982;2022-08-01T04:53:30;15.60;99.90
40077;DHT22;25777;47.824;18.982;2022-08-01T04:55:57;15.80;99.90
40077;DHT22;25777;47.824;18.982;2022-08-01T04:58:23;15.80;99.90
40077;DHT22;25777;47.824;18.982;2022-08-01T05:00:49;15.90;99.90
40077;DHT22;25777;47.824;18.982;2022-08-01T05:03:14;15.90;99.90
40077;DHT22;25777;47.824;18.982;2022-08-01T05:05:40;15.90;99.90
40077;DHT22;25777;47.824;18.982;2022-08-01T05:08:06;15.90;99.90
40077;DHT22;25777;47.824;18.982;2022-08-01T05:10:32;15.90;99.90
40077;DHT22;25777;47.824;18.982;2022-08-01T05:12:57;16.00;99.90
40077;DHT22;25777;47.824;18.982;2022-08-01T05:15:23;16.10;99.90
40077;DHT22;25777;47.824;18.982;2022-08-01T05:17:49;16.30;99.90
40077;DHT22;25777;47.824;18.982;2022-08-01T05:20:14;16.40;99.90
40077;DHT22;25777;47.824;18.982;2022-08-01T05:22:40;16.60;99.90
40077;DHT22;25777;47.824;18.982;2022-08-01T05:25:06;16.80;99.90
40077;DHT22;25777;47.824;18.982;2022-08-01T05:27:32;16.90;99.90
40077;DHT22;25777;47.824;18.982;2022-08-01T05:29:57;16.80;99.90
40077;DHT22;25777;47.824;18.982;2022-08-01T05:32:23;16.90;99.90
40077;DHT22;25777;47.824;18.982;2022-08-01T05:34:49;17.10;99.90
40077;DHT22;25777;47.824;18.982;2022-08-01T05:37:15;17.20;99.90
40077;DHT22;25777;47.824;18.982;2022-08-01T05:39:40;17.30;99.90
40077;DHT22;25777;47.824;18.982;2022-08-01T05:42:06;17.40;99.90
40077;DHT22;25777;47.824;18.982;2022-08-01T05:44:32;17.60;99.90
40077;DHT22;25777;47.824;18.982;2022-08-01T05:46:57;17.70;99.90
40077;DHT22;25777;47.824;18.982;2022-08-01T05:49:23;17.80;99.90
40077;DHT22;25777;47.824;18.982;2022-08-01T05:51:49;18.00;99.90
40077;DHT22;25777;47.824;18.982;2022-08-01T05:54:14;18.00;99.90
40077;DHT22;25777;47.824;18.982;2022-08-01T05:56:40;18.10;99.90
40077;DHT22;25777;47.824;18.982;2022-08-01T05:59:06;18.20;99.90
40077;DHT22;25777;47.824;18.982;2022-08-01T06:01:31;18.30;99.90
40077;DHT22;25777;47.824;18.982;2022-08-01T06:03:57;18.50;99.90
40077;DHT22;25777;47.824;18.982;2022-08-01T06:06:23;18.50;99.90
40077;DHT22;25777;47.824;18.982;2022-08-01T06:08:48;18.60;99.90
40077;DHT22;25777;47.824;18.982;2022-08-01T06:11:14;18.70;99.90
40077;DHT22;25777;47.824;18.982;2022-08-01T06:13:40;18.90;99.90
40077;DHT22;25777;47.824;18.982;2022-08-01T06:16:05;19.00;99.90
40077;DHT22;25777;47.824;18.982;2022-08-01T06:18:31;19.10;99.90
40077;DHT22;25777;47.824;18.982;2022-08-01T06:20:57;19.10;99.90
40077;DHT22;25777;47.824;18.982;2022-08-01T06:23:22;19.20;99.90
40077;DHT22;25777;47.824;18.982;2022-08-01T06:25:51;19.20;99.90
40077;DHT22;25777;47.824;18.982;2022-08-01T06:28:17;19.30;99.90
40077;DHT22;25777;47.824;18.982;2022-08-01T06:30:42;19.40;99.90
40077;DHT22;25777;47.824;18.982;2022-08-01T06:33:08;19.40;99.90
40077;DHT22;25777;47.824;18.982;2022-08-01T06:35:34;19.50;99.90
40077;DHT22;25777;47.824;18.982;2022-08-01T06:38:00;19.60;99.90
40077;DHT22;25777;47.824;18.982;2022-08-01T06:40:27;19.80;99.90
40077;DHT22;25777;47.824;18.982;2022-08-01T06:42:52;19.90;99.90
40077;DHT22;25777;47.824;18.982;2022-08-01T06:45:18;20.00;99.90
40077;DHT22;25777;47.824;18.982;2022-08-01T06:47:44;20.10;99.90
40077;DHT22;25777;47.824;18.982;2022-08-01T06:50:10;20.10;99.90
40077;DHT22;25777;47.824;18.982;2022-08-01T06:52:36;20.20;99.90
40077;DHT22;25777;47.824;18.982;2022-08-01T06:55:02;20.30;99.90
40077;DHT22;25777;47.824;18.982;2022-08-01T06:57:28;20.40;99.90
40077;DHT22;25777;47.824;18.982;2022-08-01T06:59:54;20.50;99.90
40077;DHT22;25777;47.824;18.982;2022-08-01T07:02:20;20.60;99.90
40077;DHT22;25777;47.824;18.982;2022-08-01T07:04:45;20.80;99.90
40077;DHT22;25777;47.824;18.982;2022-08-01T07:07:11;21.10;99.90
40077;DHT22;25777;47.824;18.982;2022-08-01T07:09:37;21.30;99.90
40077;DHT22;25777;47.824;18.982;2022-08-01T07:12:03;21.40;99.90
40077;DHT22;25777;47.824;18.982;2022-08-01T07:14:29;21.50;99.90
40077;DHT22;25777;47.824;18.982;2022-08-01T07:16:54;21.70;99.90
40077;DHT22;25777;47.824;18.982;2022-08-01T07:19:20;21.90;99.90
40077;DHT22;25777;47.824;18.982;2022-08-01T07:21:46;22.20;99.90
40077;DHT22;25777;47.824;18.982;2022-08-01T07:24:12;22.60;99.90
40077;DHT22;25777;47.824;18.982;2022-08-01T07:26:38;22.80;99.90
40077;DHT22;25777;47.824;18.982;2022-08-01T07:29:04;23.10;99.90
40077;DHT22;25777;47.824;18.982;2022-08-01T07:31:30;23.20;99.90
40077;DHT22;25777;47.824;18.982;2022-08-01T07:33:56;23.20;99.90
40077;DHT22;25777;47.824;18.982;2022-08-01T07:36:21;23.50;99.90
40077;DHT22;25777;47.824;18.982;2022-08-01T07:38:47;23.90;99.90
40077;DHT22;25777;47.824;18.982;2022-08-01T07:41:13;24.20;99.90
40077;DHT22;25777;47.824;18.982;2022-08-01T07:43:39;24.20;99.90
40077;DHT22;25777;47.824;18.982;2022-08-01T07:46:04;23.80;99.90
40077;DHT22;25777;47.824;18.982;2022-08-01T07:48:30;23.30;99.90
40077;DHT22;25777;47.824;18.982;2022-08-01T07:50:56;23.10;99.90
40077;DHT22;25777;47.824;18.982;2022-08-01T07:53:21;22.70;99.90
40077;DHT22;25777;47.824;18.982;2022-08-01T07:55:47;22.60;99.90
40077;DHT22;25777;47.824;18.982;2022-08-01T07:58:13;22.50;99.90
40077;DHT22;25777;47.824;18.982;2022-08-01T08:00:39;22.50;99.90
40077;DHT22;25777;47.824;18.982;2022-08-01T08:03:05;22.40;99.90
40077;DHT22;25777;47.824;18.982;2022-08-01T08:05:30;22.40;99.90
40077;DHT22;25777;47.824;18.982;2022-08-01T08:07:56;22.40;99.90
40077;DHT22;25777;47.824;18.982;2022-08-01T08:10:22;22.20;99.90
40077;DHT22;25777;47.824;18.982;2022-08-01T08:12:47;22.00;99.90
40077;DHT22;25777;47.824;18.982;2022-08-01T08:15:13;21.90;99.90
40077;DHT22;25777;47.824;18.982;2022-08-01T08:17:39;21.80;99.90
40077;DHT22;25777;47.824;18.982;2022-08-01T08:20:06;21.80;99.90
40077;DHT22;25777;47.824;18.982;2022-08-01T08:22:32;21.70;99.90
40077;DHT22;25777;47.824;18.982;2022-08-01T08:24:58;21.60;99.90
40077;DHT22;25777;47.824;18.982;2022-08-01T08:27:23;21.60;99.90
40077;DHT22;25777;47.824;18.982;2022-08-01T08:29:49;21.60;99.90
40077;DHT22;25777;47.824;18.982;2022-08-01T08:32:15;21.60;99.90
40077;DHT22;25777;47.824;18.982;2022-08-01T08:34:40;21.60;99.90
40077;DHT22;25777;47.824;18.982;2022-08-01T08:37:06;21.60;99.90
40077;DHT22;25777;47.824;18.982;2022-08-01T08:39:32;21.60;99.90
40077;DHT22;25777;47.824;18.982;2022-08-01T08:42:04;21.70;99.90
40077;DHT22;25777;47.824;18.982;2022-08-01T08:44:31;21.70;99.90
40077;DHT22;25777;47.824;18.982;2022-08-01T08:46:57;21.70;99.90
40077;DHT22;25777;47.824;18.982;2022-08-01T08:49:24;21.70;99.90
40077;DHT22;25777;47.824;18.982;2022-08-01T08:51:50;21.80;99.90
40077;DHT22;25777;47.824;18.982;2022-08-01T08:54:17;21.70;99.90
40077;DHT22;25777;47.824;18.982;2022-08-01T08:56:43;21.70;99.90
40077;DHT22;25777;47.824;18.982;2022-08-01T08:59:11;21.70;99.90
40077;DHT22;25777;47.824;18.982;2022-08-01T09:01:38;21.70;99.90
40077;DHT22;25777;47.824;18.982;2022-08-01T09:04:04;21.80;99.90
40077;DHT22;25777;47.824;18.982;2022-08-01T09:06:30;21.80;99.90
40077;DHT22;25777;47.824;18.982;2022-08-01T09:08:56;21.80;99.90
40077;DHT22;25777;47.824;18.982;2022-08-01T09:11:22;21.80;99.90
40077;DHT22;25777;47.824;18.982;2022-08-01T09:14:01;21.80;99.90
40077;DHT22;25777;47.824;18.982;2022-08-01T09:16:26;21.90;99.90
40077;DHT22;25777;47.824;18.982;2022-08-01T09:18:52;21.90;99.90
40077;DHT22;25777;47.824;18.982;2022-08-01T09:21:19;21.90;99.90
40077;DHT22;25777;47.824;18.982;2022-08-01T09:26:13;22.00;99.90
40077;DHT22;25777;47.824;18.982;2022-08-01T09:28:39;22.10;99.90
40077;DHT22;25777;47.824;18.982;2022-08-01T09:31:06;22.20;99.90
40077;DHT22;25777;47.824;18.982;2022-08-01T09:36:16;22.30;99.90
40077;DHT22;25777;47.824;18.982;2022-08-01T09:38:42;22.40;99.90
40077;DHT22;25777;47.824;18.982;2022-08-01T09:41:07;22.50;99.90
40077;DHT22;25777;47.824;18.982;2022-08-01T09:43:33;22.50;99.90
40077;DHT22;25777;47.824;18.982;2022-08-01T09:45:59;22.50;99.90
40077;DHT22;25777;47.824;18.982;2022-08-01T09:48:25;22.60;99.90
40077;DHT22;25777;47.824;18.982;2022-08-01T09:50:52;22.70;99.90
40077;DHT22;25777;47.824;18.982;2022-08-01T09:53:18;22.70;99.90
40077;DHT22;25777;47.824;18.982;2022-08-01T09:55:44;22.60;99.90
40077;DHT22;25777;47.824;18.982;2022-08-01T09:58:10;22.60;99.90
40077;DHT22;25777;47.824;18.982;2022-08-01T10:00:37;22.60;99.90
40077;DHT22;25777;47.824;18.982;2022-08-01T10:03:19;22.60;99.90
40077;DHT22;25777;47.824;18.982;2022-08-01T10:05:45;22.60;99.90
40077;DHT22;25777;47.824;18.982;2022-08-01T10:08:10;22.80;99.90
40077;DHT22;25777;47.824;18.982;2022-08-01T10:10:37;23.00;99.90
40077;DHT22;25777;47.824;18.982;2022-08-01T10:13:03;23.10;99.90
40077;DHT22;25777;47.824;18.982;2022-08-01T10:15:29;23.20;99.90
40077;DHT22;25777;47.824;18.982;2022-08-01T10:17:57;23.20;99.90
40077;DHT22;25777;47.824;18.982;2022-08-01T10:20:26;23.30;99.90
40077;DHT22;25777;47.824;18.982;2022-08-01T10:22:57;23.40;99.90
40077;DHT22;25777;47.824;18.982;2022-08-01T10:25:24;23.40;99.90
40077;DHT22;25777;47.824;18.982;2022-08-01T10:27:53;23.50;99.90
40077;DHT22;25777;47.824;18.982;2022-08-01T10:30:22;23.50;99.90
40077;DHT22;25777;47.824;18.982;2022-08-01T10:32:48;23.50;99.90
40077;DHT22;25777;47.824;18.982;2022-08-01T10:35:14;23.50;99.90
40077;DHT22;25777;47.824;18.982;2022-08-01T10:37:44;23.50;99.90
40077;DHT22;25777;47.824;18.982;2022-08-01T10:40:11;23.60;99.90
40077;DHT22;25777;47.824;18.982;2022-08-01T10:42:38;23.60;99.90
40077;DHT22;25777;47.824;18.982;2022-08-01T10:45:04;23.70;99.90
40077;DHT22;25777;47.824;18.982;2022-08-01T10:47:53;23.80;99.90
40077;DHT22;25777;47.824;18.982;2022-08-01T10:50:21;23.80;99.90
40077;DHT22;25777;47.824;18.982;2022-08-01T10:55:37;23.70;99.90
40077;DHT22;25777;47.824;18.982;2022-08-01T10:58:10;23.60;99.90
40077;DHT22;25777;47.824;18.982;2022-08-01T11:00:35;23.60;99.90
40077;DHT22;25777;47.824;18.982;2022-08-01T11:03:02;23.80;99.90
40077;DHT22;25777;47.824;18.982;2022-08-01T11:05:32;24.10;99.90
40077;DHT22;25777;47.824;18.982;2022-08-01T11:08:03;24.20;99.90
40077;DHT22;25777;47.824;18.982;2022-08-01T11:13:04;24.30;99.90
40077;DHT22;25777;47.824;18.982;2022-08-01T11:15:33;24.50;99.90
40077;DHT22;25777;47.824;18.982;2022-08-01T11:17:59;24.60;99.90
40077;DHT22;25777;47.824;18.982;2022-08-01T11:20:33;24.70;99.90
40077;DHT22;25777;47.824;18.982;2022-08-01T11:30:40;24.80;99.10
40077;DHT22;25777;47.824;18.982;2022-08-01T11:33:09;24.80;99.90
40077;DHT22;25777;47.824;18.982;2022-08-01T11:35:35;24.80;99.90
40077;DHT22;25777;47.824;18.982;2022-08-01T11:38:23;24.60;99.90
40077;DHT22;25777;47.824;18.982;2022-08-01T11:43:34;24.70;99.90
40077;DHT22;25777;47.824;18.982;2022-08-01T11:45:59;24.90;99.80
40077;DHT22;25777;47.824;18.982;2022-08-01T11:48:26;25.00;99.90
40077;DHT22;25777;47.824;18.982;2022-08-01T11:50:52;24.90;99.90
40077;DHT22;25777;47.824;18.982;2022-08-01T11:53:18;24.80;99.90
40077;DHT22;25777;47.824;18.982;2022-08-01T11:55:48;25.00;99.90
40077;DHT22;25777;47.824;18.982;2022-08-01T11:58:15;25.20;98.80
40077;DHT22;25777;47.824;18.982;2022-08-01T12:00:41;25.40;99.40
40077;DHT22;25777;47.824;18.982;2022-08-01T12:03:07;25.40;99.90
40077;DHT22;25777;47.824;18.982;2022-08-01T12:05:34;25.50;97.70
40077;DHT22;25777;47.824;18.982;2022-08-01T12:08:02;25.60;98.30
40077;DHT22;25777;47.824;18.982;2022-08-01T12:10:29;25.60;97.90
40077;DHT22;25777;47.824;18.982;2022-08-01T12:13:02;25.80;95.70
40077;DHT22;25777;47.824;18.982;2022-08-01T12:15:30;26.10;96.90
40077;DHT22;25777;47.824;18.982;2022-08-01T12:17:56;26.20;95.60
40077;DHT22;25777;47.824;18.982;2022-08-01T12:20:23;26.30;95.90
40077;DHT22;25777;47.824;18.982;2022-08-01T12:22:55;26.30;96.10
40077;DHT22;25777;47.824;18.982;2022-08-01T12:25:20;26.40;96.10
40077;DHT22;25777;47.824;18.982;2022-08-01T12:27:47;26.40;95.30
40077;DHT22;25777;47.824;18.982;2022-08-01T12:30:15;26.40;95.40
40077;DHT22;25777;47.824;18.982;2022-08-01T12:32:42;26.60;93.40
40077;DHT22;25777;47.824;18.982;2022-08-01T12:35:13;26.80;93.40
40077;DHT22;25777;47.824;18.982;2022-08-01T12:37:46;26.90;92.30
40077;DHT22;25777;47.824;18.982;2022-08-01T12:40:13;27.00;92.70
40077;DHT22;25777;47.824;18.982;2022-08-01T12:42:39;26.80;93.30
40077;DHT22;25777;47.824;18.982;2022-08-01T12:45:06;26.70;90.90
40077;DHT22;25777;47.824;18.982;2022-08-01T12:47:32;26.60;92.70
40077;DHT22;25777;47.824;18.982;2022-08-01T12:49:58;26.80;91.30
40077;DHT22;25777;47.824;18.982;2022-08-01T12:52:24;26.80;90.40
40077;DHT22;25777;47.824;18.982;2022-08-01T12:54:59;26.70;90.30
40077;DHT22;25777;47.824;18.982;2022-08-01T12:57:25;26.70;91.10
40077;DHT22;25777;47.824;18.982;2022-08-01T13:02:35;26.60;90.80
40077;DHT22;25777;47.824;18.982;2022-08-01T13:05:01;26.70;88.50
40077;DHT22;25777;47.824;18.982;2022-08-01T13:07:37;26.60;87.00
40077;DHT22;25777;47.824;18.982;2022-08-01T13:10:04;26.50;86.40
40077;DHT22;25777;47.824;18.982;2022-08-01T13:12:30;26.40;85.60
40077;DHT22;25777;47.824;18.982;2022-08-01T13:14:55;26.30;86.60
40077;DHT22;25777;47.824;18.982;2022-08-01T13:17:31;26.30;86.80
40077;DHT22;25777;47.824;18.982;2022-08-01T13:19:56;26.40;90.00
40077;DHT22;25777;47.824;18.982;2022-08-01T13:22:31;26.40;90.80
40077;DHT22;25777;47.824;18.982;2022-08-01T13:25:08;26.00;91.60
40077;DHT22;25777;47.824;18.982;2022-08-01T13:27:34;26.10;91.40
40077;DHT22;25777;47.824;18.982;2022-08-01T13:30:09;26.90;90.80
40077;DHT22;25777;47.824;18.982;2022-08-01T13:32:35;27.30;89.80
40077;DHT22;25777;47.824;18.982;2022-08-01T13:35:04;27.80;90.20
40077;DHT22;25777;47.824;18.982;2022-08-01T13:37:30;28.00;85.10
40077;DHT22;25777;47.824;18.982;2022-08-01T13:39:55;27.60;85.20
40077;DHT22;25777;47.824;18.982;2022-08-01T13:42:21;27.80;87.60
40077;DHT22;25777;47.824;18.982;2022-08-01T13:44:47;28.10;87.00
40077;DHT22;25777;47.824;18.982;2022-08-01T13:47:12;28.10;84.60
40077;DHT22;25777;47.824;18.982;2022-08-01T13:49:38;28.20;82.30
40077;DHT22;25777;47.824;18.982;2022-08-01T13:52:04;28.30;83.70
40077;DHT22;25777;47.824;18.982;2022-08-01T13:54:31;28.40;82.00
40077;DHT22;25777;47.824;18.982;2022-08-01T13:56:57;28.30;81.10
40077;DHT22;25777;47.824;18.982;2022-08-01T13:59:23;28.50;82.00
40077;DHT22;25777;47.824;18.982;2022-08-01T14:01:48;28.60;82.60
40077;DHT22;25777;47.824;18.982;2022-08-01T14:04:14;28.50;80.60
40077;DHT22;25777;47.824;18.982;2022-08-01T14:06:40;28.30;78.90
40077;DHT22;25777;47.824;18.982;2022-08-01T14:09:06;28.50;80.40
40077;DHT22;25777;47.824;18.982;2022-08-01T14:11:32;28.50;79.10
40077;DHT22;25777;47.824;18.982;2022-08-01T14:13:58;28.50;77.30
40077;DHT22;25777;47.824;18.982;2022-08-01T14:16:23;28.50;78.60
40077;DHT22;25777;47.824;18.982;2022-08-01T14:18:49;28.70;81.10
40077;DHT22;25777;47.824;18.982;2022-08-01T14:21:15;28.60;77.40
40077;DHT22;25777;47.824;18.982;2022-08-01T14:23:41;28.60;79.70
40077;DHT22;25777;47.824;18.982;2022-08-01T14:26:08;28.50;77.60
40077;DHT22;25777;47.824;18.982;2022-08-01T14:28:34;28.50;79.20
40077;DHT22;25777;47.824;18.982;2022-08-01T14:30:59;28.30;79.00
40077;DHT22;25777;47.824;18.982;2022-08-01T14:33:25;28.20;79.90
40077;DHT22;25777;47.824;18.982;2022-08-01T14:35:52;28.20;79.20
40077;DHT22;25777;47.824;18.982;2022-08-01T14:38:17;28.30;77.40
40077;DHT22;25777;47.824;18.982;2022-08-01T14:40:43;28.10;78.90
40077;DHT22;25777;47.824;18.982;2022-08-01T14:43:12;27.70;80.60
40077;DHT22;25777;47.824;18.982;2022-08-01T14:45:38;27.70;80.90
40077;DHT22;25777;47.824;18.982;2022-08-01T14:48:04;27.80;81.60
40077;DHT22;25777;47.824;18.982;2022-08-01T14:50:29;28.00;80.80
40077;DHT22;25777;47.824;18.982;2022-08-01T14:52:56;28.10;81.00
40077;DHT22;25777;47.824;18.982;2022-08-01T14:55:22;28.10;80.20
40077;DHT22;25777;47.824;18.982;2022-08-01T14:57:50;28.00;78.80
40077;DHT22;25777;47.824;18.982;2022-08-01T15:00:16;28.00;77.60
40077;DHT22;25777;47.824;18.982;2022-08-01T15:02:42;27.90;78.80
40077;DHT22;25777;47.824;18.982;2022-08-01T15:05:08;27.80;79.30
40077;DHT22;25777;47.824;18.982;2022-08-01T15:07:34;27.90;79.80
40077;DHT22;25777;47.824;18.982;2022-08-01T15:10:00;27.80;82.20
40077;DHT22;25777;47.824;18.982;2022-08-01T15:12:25;27.80;81.10
40077;DHT22;25777;47.824;18.982;2022-08-01T15:14:51;27.70;80.00
40077;DHT22;25777;47.824;18.982;2022-08-01T15:17:20;27.70;79.20
40077;DHT22;25777;47.824;18.982;2022-08-01T15:19:47;27.70;79.30
40077;DHT22;25777;47.824;18.982;2022-08-01T15:22:13;27.70;81.10
40077;DHT22;25777;47.824;18.982;2022-08-01T15:24:39;27.70;81.40
40077;DHT22;25777;47.824;18.982;2022-08-01T15:27:05;27.60;82.60
40077;DHT22;25777;47.824;18.982;2022-08-01T15:29:31;27.50;79.90
40077;DHT22;25777;47.824;18.982;2022-08-01T15:31:57;27.40;81.50
40077;DHT22;25777;47.824;18.982;2022-08-01T15:34:23;27.30;82.40
40077;DHT22;25777;47.824;18.982;2022-08-01T15:36:49;27.30;82.20
40077;DHT22;25777;47.824;18.982;2022-08-01T15:39:15;27.40;82.30
40077;DHT22;25777;47.824;18.982;2022-08-01T15:41:40;27.30;81.80
40077;DHT22;25777;47.824;18.982;2022-08-01T15:44:06;27.20;80.90